sensor_id;sensor_type;location;lat;lon;timestamp;pressure;altitude;pressure_sealevel;temperature;humidity
11523;BME280;40093;43.224;27.910;2022-12-29T00:02:00;101754.91;;;6.63;94.00
11523;BME280;40093;43.224;27.910;2022-12-29T00:04:29;101762.63;;;6.53;94.69
11523;BME280;40093;43.224;27.910;2022-12-29T00:06:56;101757.28;;;6.39;96.50
11523;BME280;40093;43.224;27.910;2022-12-29T00:09:23;101749.91;;;6.48;96.06
11523;BME280;40093;43.224;27.910;2022-12-29T00:11:50;101752.78;;;6.43;96.01
11523;BME280;40093;43.224;27.910;2022-12-29T00:14:17;101747.19;;;6.48;97.10
11523;BME280;40093;43.224;27.910;2022-12-29T00:17:01;101749.28;;;6.60;97.48
11523;BME280;40093;43.224;27.910;2022-12-29T00:19:30;101749.59;;;6.58;97.06
11523;BME280;40093;43.224;27.910;2022-12-29T00:22:15;101748.66;;;6.63;96.45
11523;BME280;40093;43.224;27.910;2022-12-29T00:24:59;101749.25;;;6.51;96.84
11523;BME280;40093;43.224;27.910;2022-12-29T00:27:45;101755.72;;;6.55;97.39
11523;BME280;40093;43.224;27.910;2022-12-29T00:30:30;101746.41;;;6.56;97.16
11523;BME280;40093;43.224;27.910;2022-12-29T00:33:15;101757.16;;;6.44;98.54
11523;BME280;40093;43.224;27.910;2022-12-29T00:36:04;101747.34;;;6.52;99.34
11523;BME280;40093;43.224;27.910;2022-12-29T00:38:32;101753.94;;;6.51;98.96
11523;BME280;40093;43.224;27.910;2022-12-29T00:41:19;101748.31;;;6.64;98.74
11523;BME280;40093;43.224;27.910;2022-12-29T00:44:03;101738.50;;;6.63;98.41
11523;BME280;40093;43.224;27.910;2022-12-29T00:46:36;101745.28;;;6.66;97.93
11523;BME280;40093;43.224;27.910;2022-12-29T00:49:03;101742.38;;;6.62;99.24
11523;BME280;40093;43.224;27.910;2022-12-29T00:51:49;101739.97;;;6.69;100.00
11523;BME280;40093;43.224;27.910;2022-12-29T00:54:17;101742.53;;;6.74;99.76
11523;BME280;40093;43.224;27.910;2022-12-29T00:56:46;101740.44;;;6.80;98.74
11523;BME280;40093;43.224;27.910;2022-12-29T00:59:13;101732.25;;;6.71;97.83
11523;BME280;40093;43.224;27.910;2022-12-29T01:01:40;101732.25;;;6.71;98.21
11523;BME280;40093;43.224;27.910;2022-12-29T01:04:08;101735.31;;;6.78;98.19
11523;BME280;40093;43.224;27.910;2022-12-29T01:06:36;101719.03;;;6.73;98.41
11523;BME280;40093;43.224;27.910;2022-12-29T01:09:06;101723.56;;;6.78;98.03
11523;BME280;40093;43.224;27.910;2022-12-29T01:11:51;101713.56;;;6.73;98.87
11523;BME280;40093;43.224;27.910;2022-12-29T01:14:18;101718.44;;;6.76;99.68
11523;BME280;40093;43.224;27.910;2022-12-29T01:16:46;101714.09;;;6.84;100.00
11523;BME280;40093;43.224;27.910;2022-12-29T01:19:16;101721.94;;;6.85;99.64
11523;BME280;40093;43.224;27.910;2022-12-29T01:21:44;101711.00;;;6.85;99.34
11523;BME280;40093;43.224;27.910;2022-12-29T01:24:13;101702.78;;;6.85;99.71
11523;BME280;40093;43.224;27.910;2022-12-29T01:26:40;101705.06;;;6.83;99.51
11523;BME280;40093;43.224;27.910;2022-12-29T01:29:06;101696.06;;;6.83;99.96
11523;BME280;40093;43.224;27.910;2022-12-29T01:31:33;101692.97;;;6.84;99.76
11523;BME280;40093;43.224;27.910;2022-12-29T01:34:00;101687.19;;;6.77;100.00
11523;BME280;40093;43.224;27.910;2022-12-29T01:36:28;101692.81;;;6.72;100.00
11523;BME280;40093;43.224;27.910;2022-12-29T01:38:56;101675.94;;;6.70;100.00
11523;BME280;40093;43.224;27.910;2022-12-29T01:41:25;101669.94;;;6.60;100.00
11523;BME280;40093;43.224;27.910;2022-12-29T01:43:54;101672.84;;;6.63;100.00
11523;BME280;40093;43.224;27.910;2022-12-29T01:46:25;101658.06;;;6.64;100.00
11523;BME280;40093;43.224;27.910;2022-12-29T01:48:57;101655.50;;;6.59;100.00
11523;BME280;40093;43.224;27.910;2022-12-29T01:51:26;101653.53;;;6.60;100.00
11523;BME280;40093;43.224;27.910;2022-12-29T01:53:56;101652.59;;;6.56;100.00
11523;BME280;40093;43.224;27.910;2022-12-29T01:56:26;101636.00;;;6.52;100.00
11523;BME280;40093;43.224;27.910;2022-12-29T01:58:56;101634.41;;;6.51;100.00
11523;BME280;40093;43.224;27.910;2022-12-29T02:01:26;101645.19;;;6.56;100.00
11523;BME280;40093;43.224;27.910;2022-12-29T02:03:53;101640.84;;;6.64;100.00
11523;BME280;40093;43.224;27.910;2022-12-29T02:06:22;101630.88;;;6.59;100.00
11523;BME280;40093;43.224;27.910;2022-12-29T02:08:53;101633.28;;;6.52;100.00
11523;BME280;40093;43.224;27.910;2022-12-29T02:11:23;101641.97;;;6.54;100.00
11523;BME280;40093;43.224;27.910;2022-12-29T02:13:52;101645.03;;;6.61;100.00
11523;BME280;40093;43.224;27.910;2022-12-29T02:16:37;101641.00;;;6.59;100.00
11523;BME280;40093;43.224;27.910;2022-12-29T02:19:34;101641.78;;;6.42;100.00
11523;BME280;40093;43.224;27.910;2022-12-29T02:22:15;101633.75;;;6.54;100.00
11523;BME280;40093;43.224;27.910;2022-12-29T02:28:16;101638.75;;;6.35;100.00
11523;BME280;40093;43.224;27.910;2022-12-29T02:31:01;101629.91;;;6.38;100.00
11523;BME280;40093;43.224;27.910;2022-12-29T02:33:41;101621.53;;;6.43;100.00
11523;BME280;40093;43.224;27.910;2022-12-29T02:36:17;101618.66;;;6.48;100.00
11523;BME280;40093;43.224;27.910;2022-12-29T02:38:54;101620.09;;;6.46;100.00
11523;BME280;40093;43.224;27.910;2022-12-29T02:41:30;101615.75;;;6.53;100.00
11523;BME280;40093;43.224;27.910;2022-12-29T02:44:03;101613.50;;;6.55;100.00
11523;BME280;40093;43.224;27.910;2022-12-29T02:46:36;101599.34;;;6.53;100.00
11523;BME280;40093;43.224;27.910;2022-12-29T02:49:09;101610.44;;;6.48;100.00
11523;BME280;40093;43.224;27.910;2022-12-29T02:51:46;101600.97;;;6.37;100.00
11523;BME280;40093;43.224;27.910;2022-12-29T02:54:16;101609.97;;;6.46;100.00
11523;BME280;40093;43.224;27.910;2022-12-29T02:57:05;101603.84;;;6.49;100.00
11523;BME280;40093;43.224;27.910;2022-12-29T02:59:35;101610.59;;;6.60;100.00
11523;BME280;40093;43.224;27.910;2022-12-29T03:02:13;101603.84;;;6.66;100.00
11523;BME280;40093;43.224;27.910;2022-12-29T03:04:57;101587.91;;;6.60;100.00
11523;BME280;40093;43.224;27.910;2022-12-29T03:07:34;101602.53;;;6.81;100.00
11523;BME280;40093;43.224;27.910;2022-12-29T03:10:17;101600.13;;;6.88;100.00
11523;BME280;40093;43.224;27.910;2022-12-29T03:12:48;101598.00;;;6.93;100.00
11523;BME280;40093;43.224;27.910;2022-12-29T03:15:40;101603.78;;;6.92;100.00
11523;BME280;40093;43.224;27.910;2022-12-29T03:18:45;101602.53;;;6.89;100.00
11523;BME280;40093;43.224;27.910;2022-12-29T03:21:17;101612.03;;;6.83;100.00
11523;BME280;40093;43.224;27.910;2022-12-29T03:23:48;101613.66;;;6.76;100.00
11523;BME280;40093;43.224;27.910;2022-12-29T03:26:17;101611.06;;;6.79;100.00
11523;BME280;40093;43.224;27.910;2022-12-29T03:28:50;101603.03;;;6.83;100.00
11523;BME280;40093;43.224;27.910;2022-12-29T03:31:19;101614.59;;;6.88;100.00
11523;BME280;40093;43.224;27.910;2022-12-29T03:33:48;101614.91;;;6.95;100.00
11523;BME280;40093;43.224;27.910;2022-12-29T03:36:20;101620.38;;;6.95;100.00
11523;BME280;40093;43.224;27.910;2022-12-29T03:38:55;101623.94;;;6.96;100.00
11523;BME280;40093;43.224;27.910;2022-12-29T03:41:28;101632.78;;;7.01;100.00
11523;BME280;40093;43.224;27.910;2022-12-29T03:43:57;101632.13;;;7.04;100.00
11523;BME280;40093;43.224;27.910;2022-12-29T03:46:23;101631.47;;;7.07;100.00
11523;BME280;40093;43.224;27.910;2022-12-29T03:48:52;101633.72;;;7.05;100.00
11523;BME280;40093;43.224;27.910;2022-12-29T03:51:19;101624.88;;;7.00;100.00
11523;BME280;40093;43.224;27.910;2022-12-29T03:53:46;101633.44;;;6.81;100.00
11523;BME280;40093;43.224;27.910;2022-12-29T03:56:13;101636.34;;;6.76;100.00
11523;BME280;40093;43.224;27.910;2022-12-29T03:58:40;101636.03;;;6.61;100.00
11523;BME280;40093;43.224;27.910;2022-12-29T04:01:07;101638.59;;;6.57;100.00
11523;BME280;40093;43.224;27.910;2022-12-29T04:03:33;101643.09;;;6.53;100.00
11523;BME280;40093;43.224;27.910;2022-12-29T04:06:02;101632.47;;;6.43;100.00
11523;BME280;40093;43.224;27.910;2022-12-29T04:08:29;101614.28;;;6.22;100.00
11523;BME280;40093;43.224;27.910;2022-12-29T04:10:56;101646.31;;;6.38;100.00
11523;BME280;40093;43.224;27.910;2022-12-29T04:13:23;101645.19;;;6.31;100.00
11523;BME280;40093;43.224;27.910;2022-12-29T04:15:50;101648.22;;;6.29;100.00
11523;BME280;40093;43.224;27.910;2022-12-29T04:18:16;101639.53;;;6.27;100.00
11523;BME280;40093;43.224;27.910;2022-12-29T04:20:44;101634.72;;;6.24;100.00
11523;BME280;40093;43.224;27.910;2022-12-29T04:23:30;101644.66;;;6.20;100.00
11523;BME280;40093;43.224;27.910;2022-12-29T04:25:57;101641.16;;;6.20;100.00
11523;BME280;40093;43.224;27.910;2022-12-29T04:28:25;101646.56;;;6.11;100.00
11523;BME280;40093;43.224;27.910;2022-12-29T04:30:52;101646.44;;;6.08;100.00
11523;BME280;40093;43.224;27.910;2022-12-29T04:33:19;101644.19;;;6.10;100.00
11523;BME280;40093;43.224;27.910;2022-12-29T04:35:47;101640.78;;;6.13;100.00
11523;BME280;40093;43.224;27.910;2022-12-29T04:38:14;101644.66;;;6.20;100.00
11523;BME280;40093;43.224;27.910;2022-12-29T04:40:43;101645.66;;;6.24;100.00
11523;BME280;40093;43.224;27.910;2022-12-29T04:43:09;101641.16;;;6.28;100.00
11523;BME280;40093;43.224;27.910;2022-12-29T04:45:38;101642.75;;;6.29;100.00
11523;BME280;40093;43.224;27.910;2022-12-29T04:48:05;101642.28;;;6.36;100.00
11523;BME280;40093;43.224;27.910;2022-12-29T04:50:32;101643.09;;;6.36;100.00
11523;BME280;40093;43.224;27.910;2022-12-29T04:52:59;101647.44;;;6.29;100.00
11523;BME280;40093;43.224;27.910;2022-12-29T04:55:26;101651.44;;;6.31;100.00
11523;BME280;40093;43.224;27.910;2022-12-29T04:57:56;101650.16;;;6.37;100.00
11523;BME280;40093;43.224;27.910;2022-12-29T05:00:23;101646.13;;;6.35;100.00
11523;BME280;40093;43.224;27.910;2022-12-29T05:02:51;101647.91;;;6.39;100.00
11523;BME280;40093;43.224;27.910;2022-12-29T05:05:18;101651.59;;;6.35;100.00
11523;BME280;40093;43.224;27.910;2022-12-29T05:07:45;101650.47;;;6.36;100.00
11523;BME280;40093;43.224;27.910;2022-12-29T05:10:12;101656.28;;;6.34;100.00
11523;BME280;40093;43.224;27.910;2022-12-29T05:12:39;101654.66;;;6.33;100.00
11523;BME280;40093;43.224;27.910;2022-12-29T05:15:09;101648.69;;;6.31;100.00
11523;BME280;40093;43.224;27.910;2022-12-29T05:17:36;101620.53;;;6.14;100.00
11523;BME280;40093;43.224;27.910;2022-12-29T05:20:04;101639.88;;;6.34;100.00
11523;BME280;40093;43.224;27.910;2022-12-29T05:22:31;101623.28;;;6.22;100.00
11523;BME280;40093;43.224;27.910;2022-12-29T05:24:58;101651.94;;;6.42;100.00
11523;BME280;40093;43.224;27.910;2022-12-29T05:27:25;101649.03;;;6.47;100.00
11523;BME280;40093;43.224;27.910;2022-12-29T05:29:51;101643.41;;;6.43;100.00
11523;BME280;40093;43.224;27.910;2022-12-29T05:32:20;101639.41;;;6.49;100.00
11523;BME280;40093;43.224;27.910;2022-12-29T05:34:47;101642.94;;;6.50;100.00
11523;BME280;40093;43.224;27.910;2022-12-29T05:37:14;101644.69;;;6.54;100.00
11523;BME280;40093;43.224;27.910;2022-12-29T05:39:41;101625.25;;;6.47;100.00
11523;BME280;40093;43.224;27.910;2022-12-29T05:42:08;101640.03;;;6.55;100.00
11523;BME280;40093;43.224;27.910;2022-12-29T05:44:35;101647.28;;;6.59;100.00
11523;BME280;40093;43.224;27.910;2022-12-29T05:47:02;101648.72;;;6.65;100.00
11523;BME280;40093;43.224;27.910;2022-12-29T05:49:30;101649.41;;;6.71;100.00
11523;BME280;40093;43.224;27.910;2022-12-29T05:51:57;101651.47;;;6.74;100.00
11523;BME280;40093;43.224;27.910;2022-12-29T05:54:24;101660.78;;;6.81;100.00
11523;BME280;40093;43.224;27.910;2022-12-29T05:56:51;101653.72;;;6.80;100.00
11523;BME280;40093;43.224;27.910;2022-12-29T05:59:18;101655.66;;;6.88;100.00
11523;BME280;40093;43.224;27.910;2022-12-29T06:01:44;101660.47;;;7.00;100.00
11523;BME280;40093;43.224;27.910;2022-12-29T06:04:11;101653.84;;;7.09;100.00
11523;BME280;40093;43.224;27.910;2022-12-29T06:06:40;101651.72;;;7.23;100.00
11523;BME280;40093;43.224;27.910;2022-12-29T06:09:09;101652.16;;;7.42;100.00
11523;BME280;40093;43.224;27.910;2022-12-29T06:11:36;101659.38;;;7.55;100.00
11523;BME280;40093;43.224;27.910;2022-12-29T06:14:03;101657.75;;;7.54;100.00
11523;BME280;40093;43.224;27.910;2022-12-29T06:16:30;101649.34;;;7.59;100.00
11523;BME280;40093;43.224;27.910;2022-12-29T06:18:57;101662.31;;;7.79;100.00
11523;BME280;40093;43.224;27.910;2022-12-29T06:21:24;101654.56;;;7.89;100.00
11523;BME280;40093;43.224;27.910;2022-12-29T06:23:53;101651.75;;;7.98;100.00
11523;BME280;40093;43.224;27.910;2022-12-29T06:26:20;101652.78;;;8.22;100.00
11523;BME280;40093;43.224;27.910;2022-12-29T06:28:47;101661.22;;;8.38;100.00
11523;BME280;40093;43.224;27.910;2022-12-29T06:31:14;101657.34;;;8.59;100.00
11523;BME280;40093;43.224;27.910;2022-12-29T06:33:41;101661.50;;;8.86;100.00
11523;BME280;40093;43.224;27.910;2022-12-29T06:36:08;101663.72;;;9.04;100.00
11523;BME280;40093;43.224;27.910;2022-12-29T06:38:35;101642.84;;;9.12;100.00
11523;BME280;40093;43.224;27.910;2022-12-29T06:41:03;101666.75;;;9.44;100.00
11523;BME280;40093;43.224;27.910;2022-12-29T06:43:30;101663.91;;;9.64;100.00
11523;BME280;40093;43.224;27.910;2022-12-29T06:45:58;101664.16;;;9.83;100.00
11523;BME280;40093;43.224;27.910;2022-12-29T06:48:35;101662.59;;;10.06;100.00
11523;BME280;40093;43.224;27.910;2022-12-29T06:51:02;101664.88;;;10.28;100.00
11523;BME280;40093;43.224;27.910;2022-12-29T06:53:29;101650.03;;;10.44;99.17
11523;BME280;40093;43.224;27.910;2022-12-29T06:55:55;101650.94;;;10.60;97.90
11523;BME280;40093;43.224;27.910;2022-12-29T06:58:24;101645.03;;;10.74;96.74
11523;BME280;40093;43.224;27.910;2022-12-29T07:00:51;101651.69;;;11.00;94.76
11523;BME280;40093;43.224;27.910;2022-12-29T07:03:18;101647.75;;;11.13;93.20
11523;BME280;40093;43.224;27.910;2022-12-29T07:05:46;101652.22;;;11.33;91.41
11523;BME280;40093;43.224;27.910;2022-12-29T07:08:13;101650.41;;;11.53;89.75
11523;BME280;40093;43.224;27.910;2022-12-29T07:10:40;101659.06;;;11.98;89.09
11523;BME280;40093;43.224;27.910;2022-12-29T07:13:07;101653.28;;;12.71;85.21
11523;BME280;40093;43.224;27.910;2022-12-29T07:15:36;101647.16;;;13.19;81.36
11523;BME280;40093;43.224;27.910;2022-12-29T07:18:03;101651.19;;;13.22;77.67
11523;BME280;40093;43.224;27.910;2022-12-29T07:20:30;101658.31;;;12.85;78.06
11523;BME280;40093;43.224;27.910;2022-12-29T07:22:57;101655.03;;;12.79;78.80
11523;BME280;40093;43.224;27.910;2022-12-29T07:25:24;101631.44;;;12.47;80.17
11523;BME280;40093;43.224;27.910;2022-12-29T07:27:51;101657.13;;;12.67;79.62
11523;BME280;40093;43.224;27.910;2022-12-29T07:30:18;101660.03;;;12.74;78.12
11523;BME280;40093;43.224;27.910;2022-12-29T07:32:46;101652.91;;;12.73;77.44
11523;BME280;40093;43.224;27.910;2022-12-29T07:35:13;101648.97;;;12.55;77.30
11523;BME280;40093;43.224;27.910;2022-12-29T07:37:40;101656.31;;;12.66;77.65
11523;BME280;40093;43.224;27.910;2022-12-29T07:40:09;101655.31;;;12.74;77.35
11523;BME280;40093;43.224;27.910;2022-12-29T07:42:36;101660.75;;;12.90;76.85
11523;BME280;40093;43.224;27.910;2022-12-29T07:45:03;101658.63;;;12.99;76.21
11523;BME280;40093;43.224;27.910;2022-12-29T07:47:30;101654.84;;;13.07;75.37
11523;BME280;40093;43.224;27.910;2022-12-29T07:49:59;101653.81;;;13.15;74.82
11523;BME280;40093;43.224;27.910;2022-12-29T07:52:26;101653.09;;;12.99;75.23
11523;BME280;40093;43.224;27.910;2022-12-29T07:54:52;101653.66;;;13.08;74.56
11523;BME280;40093;43.224;27.910;2022-12-29T07:57:19;101654.03;;;13.06;74.54
11523;BME280;40093;43.224;27.910;2022-12-29T07:59:46;101654.41;;;13.05;74.32
11523;BME280;40093;43.224;27.910;2022-12-29T08:02:13;101649.56;;;13.21;74.37
11523;BME280;40093;43.224;27.910;2022-12-29T08:04:40;101655.03;;;13.17;74.17
11523;BME280;40093;43.224;27.910;2022-12-29T08:07:08;101655.09;;;12.83;75.45
11523;BME280;40093;43.224;27.910;2022-12-29T08:09:35;101649.84;;;12.78;75.73
11523;BME280;40093;43.224;27.910;2022-12-29T08:12:02;101653.34;;;12.75;75.63
11523;BME280;40093;43.224;27.910;2022-12-29T08:14:29;101652.00;;;12.50;77.24
11523;BME280;40093;43.224;27.910;2022-12-29T08:16:56;101646.72;;;12.60;77.46
11523;BME280;40093;43.224;27.910;2022-12-29T08:19:22;101652.09;;;12.72;76.53
11523;BME280;40093;43.224;27.910;2022-12-29T08:21:49;101653.50;;;12.63;76.32
11523;BME280;40093;43.224;27.910;2022-12-29T08:24:18;101654.41;;;12.51;77.35
11523;BME280;40093;43.224;27.910;2022-12-29T08:26:46;101657.69;;;12.57;77.82
11523;BME280;40093;43.224;27.910;2022-12-29T08:29:13;101655.81;;;12.80;76.51
11523;BME280;40093;43.224;27.910;2022-12-29T08:31:40;101650.75;;;13.01;75.27
11523;BME280;40093;43.224;27.910;2022-12-29T08:34:06;101630.69;;;12.85;73.78
11523;BME280;40093;43.224;27.910;2022-12-29T08:36:35;101654.59;;;12.96;74.53
11523;BME280;40093;43.224;27.910;2022-12-29T08:39:04;101646.38;;;12.81;74.62
11523;BME280;40093;43.224;27.910;2022-12-29T08:41:32;101645.41;;;12.73;74.82
11523;BME280;40093;43.224;27.910;2022-12-29T08:43:59;101643.16;;;12.79;75.56
11523;BME280;40093;43.224;27.910;2022-12-29T08:46:26;101635.81;;;12.86;74.66
11523;BME280;40093;43.224;27.910;2022-12-29T08:48:53;101637.81;;;12.86;74.20
11523;BME280;40093;43.224;27.910;2022-12-29T08:51:20;101633.00;;;12.83;74.28
11523;BME280;40093;43.224;27.910;2022-12-29T08:53:47;101631.09;;;12.87;74.05
11523;BME280;40093;43.224;27.910;2022-12-29T08:56:14;101634.59;;;12.84;74.57
11523;BME280;40093;43.224;27.910;2022-12-29T08:58:42;101637.38;;;13.03;74.45
11523;BME280;40093;43.224;27.910;2022-12-29T09:01:09;101622.97;;;13.13;73.49
11523;BME280;40093;43.224;27.910;2022-12-29T09:03:36;101628.56;;;13.16;73.13
11523;BME280;40093;43.224;27.910;2022-12-29T09:06:03;101625.44;;;13.18;72.53
11523;BME280;40093;43.224;27.910;2022-12-29T09:08:30;101623.66;;;13.29;73.41
11523;BME280;40093;43.224;27.910;2022-12-29T09:11:06;101616.31;;;12.95;73.12
11523;BME280;40093;43.224;27.910;2022-12-29T09:13:33;101622.38;;;13.23;73.22
11523;BME280;40093;43.224;27.910;2022-12-29T09:16:02;101618.38;;;13.43;71.99
11523;BME280;40093;43.224;27.910;2022-12-29T09:18:29;101621.59;;;13.45;71.42
11523;BME280;40093;43.224;27.910;2022-12-29T09:20:57;101615.13;;;13.15;72.19
11523;BME280;40093;43.224;27.910;2022-12-29T09:23:24;101613.91;;;13.35;72.06
11523;BME280;40093;43.224;27.910;2022-12-29T09:25:51;101616.66;;;13.35;72.23
11523;BME280;40093;43.224;27.910;2022-12-29T09:28:18;101609.13;;;13.13;71.93
11523;BME280;40093;43.224;27.910;2022-12-29T09:30:45;101607.84;;;13.07;72.35
11523;BME280;40093;43.224;27.910;2022-12-29T09:33:13;101604.50;;;13.17;72.60
11523;BME280;40093;43.224;27.910;2022-12-29T09:35:41;101598.13;;;12.94;72.51
11523;BME280;40093;43.224;27.910;2022-12-29T09:38:08;101611.56;;;13.14;72.88
11523;BME280;40093;43.224;27.910;2022-12-29T09:40:35;101607.09;;;13.29;71.99
11523;BME280;40093;43.224;27.910;2022-12-29T09:46:15;101601.16;;;13.30;72.05
11523;BME280;40093;43.224;27.910;2022-12-29T09:48:50;101592.53;;;13.32;71.91
11523;BME280;40093;43.224;27.910;2022-12-29T09:51:21;101589.69;;;13.28;71.45
11523;BME280;40093;43.224;27.910;2022-12-29T09:53:53;101585.97;;;13.40;71.85
11523;BME280;40093;43.224;27.910;2022-12-29T09:56:23;101583.13;;;13.59;70.17
11523;BME280;40093;43.224;27.910;2022-12-29T09:58:54;101586.59;;;13.11;71.50
11523;BME280;40093;43.224;27.910;2022-12-29T10:01:30;101576.84;;;13.17;72.27
11523;BME280;40093;43.224;27.910;2022-12-29T10:04:00;101573.16;;;13.32;71.40
11523;BME280;40093;43.224;27.910;2022-12-29T10:06:33;101571.31;;;13.17;71.63
11523;BME280;40093;43.224;27.910;2022-12-29T10:09:08;101573.91;;;13.29;71.54
11523;BME280;40093;43.224;27.910;2022-12-29T10:11:57;101572.41;;;13.35;71.17
11523;BME280;40093;43.224;27.910;2022-12-29T10:14:37;101558.44;;;13.47;70.82
11523;BME280;40093;43.224;27.910;2022-12-29T10:17:15;101563.63;;;13.52;71.12
11523;BME280;40093;43.224;27.910;2022-12-29T10:19:57;101557.50;;;13.62;70.65
11523;BME280;40093;43.224;27.910;2022-12-29T10:22:40;101551.69;;;13.70;70.02
11523;BME280;40093;43.224;27.910;2022-12-29T10:25:16;101546.41;;;13.88;69.88
11523;BME280;40093;43.224;27.910;2022-12-29T10:27:47;101549.94;;;13.85;69.39
11523;BME280;40093;43.224;27.910;2022-12-29T10:30:15;101540.63;;;13.96;69.09
11523;BME280;40093;43.224;27.910;2022-12-29T10:32:45;101532.91;;;13.83;68.61
11523;BME280;40093;43.224;27.910;2022-12-29T10:35:18;101534.28;;;13.96;68.47
11523;BME280;40093;43.224;27.910;2022-12-29T10:37:49;101536.41;;;13.54;69.50
11523;BME280;40093;43.224;27.910;2022-12-29T10:40:24;101530.78;;;13.47;70.49
11523;BME280;40093;43.224;27.910;2022-12-29T10:42:54;101532.53;;;13.36;71.07
11523;BME280;40093;43.224;27.910;2022-12-29T10:45:24;101530.09;;;13.31;71.33
11523;BME280;40093;43.224;27.910;2022-12-29T10:47:57;101526.59;;;13.34;71.22
11523;BME280;40093;43.224;27.910;2022-12-29T10:50:27;101532.00;;;13.49;71.10
11523;BME280;40093;43.224;27.910;2022-12-29T10:52:57;101512.75;;;13.82;69.80
11523;BME280;40093;43.224;27.910;2022-12-29T10:55:28;101524.13;;;13.77;69.45
11523;BME280;40093;43.224;27.910;2022-12-29T10:58:01;101518.06;;;13.94;69.13
11523;BME280;40093;43.224;27.910;2022-12-29T11:00:30;101522.16;;;14.04;68.40
11523;BME280;40093;43.224;27.910;2022-12-29T11:03:19;101518.63;;;14.07;68.13
11523;BME280;40093;43.224;27.910;2022-12-29T11:05:55;101508.63;;;13.99;69.02
11523;BME280;40093;43.224;27.910;2022-12-29T11:08:26;101512.34;;;14.10;68.30
11523;BME280;40093;43.224;27.910;2022-12-29T11:10:58;101510.84;;;14.16;67.73
11523;BME280;40093;43.224;27.910;2022-12-29T11:13:27;101507.47;;;14.26;68.01
11523;BME280;40093;43.224;27.910;2022-12-29T11:15:55;101517.16;;;14.42;66.76
11523;BME280;40093;43.224;27.910;2022-12-29T11:18:23;101510.06;;;14.45;66.96
11523;BME280;40093;43.224;27.910;2022-12-29T11:20:52;101505.81;;;14.54;65.72
11523;BME280;40093;43.224;27.910;2022-12-29T11:23:31;101512.44;;;14.46;66.52
11523;BME280;40093;43.224;27.910;2022-12-29T11:26:13;101516.44;;;14.49;68.04
11523;BME280;40093;43.224;27.910;2022-12-29T11:28:41;101504.22;;;14.53;68.60
11523;BME280;40093;43.224;27.910;2022-12-29T11:31:09;101501.38;;;14.46;69.24
11523;BME280;40093;43.224;27.910;2022-12-29T11:33:38;101507.34;;;14.48;70.18
11523;BME280;40093;43.224;27.910;2022-12-29T11:36:07;101499.72;;;14.38;70.66
11523;BME280;40093;43.224;27.910;2022-12-29T11:38:40;101498.06;;;14.34;71.92
11523;BME280;40093;43.224;27.910;2022-12-29T11:41:12;101499.66;;;14.35;73.04
11523;BME280;40093;43.224;27.910;2022-12-29T11:43:41;101498.81;;;14.31;73.21
11523;BME280;40093;43.224;27.910;2022-12-29T11:46:16;101504.31;;;14.27;73.79
11523;BME280;40093;43.224;27.910;2022-12-29T11:48:44;101497.50;;;14.21;74.69
11523;BME280;40093;43.224;27.910;2022-12-29T11:51:21;101497.81;;;14.16;75.29
11523;BME280;40093;43.224;27.910;2022-12-29T11:53:52;101491.47;;;14.16;75.61
11523;BME280;40093;43.224;27.910;2022-12-29T11:56:30;101491.47;;;14.16;75.83
11523;BME280;40093;43.224;27.910;2022-12-29T11:58:58;101489.88;;;14.15;76.81
11523;BME280;40093;43.224;27.910;2022-12-29T12:01:31;101490.53;;;14.05;77.10
11523;BME280;40093;43.224;27.910;2022-12-29T12:04:02;101487.06;;;13.82;78.98
11523;BME280;40093;43.224;27.910;2022-12-29T12:06:33;101478.28;;;13.76;79.69
11523;BME280;40093;43.224;27.910;2022-12-29T12:09:06;101488.88;;;13.71;81.11
11523;BME280;40093;43.224;27.910;2022-12-29T12:11:38;101478.66;;;13.75;81.89
11523;BME280;40093;43.224;27.910;2022-12-29T12:14:14;101472.28;;;13.71;82.15
11523;BME280;40093;43.224;27.910;2022-12-29T12:16:47;101474.28;;;13.74;82.59
11523;BME280;40093;43.224;27.910;2022-12-29T12:19:24;101466.69;;;13.67;82.34
11523;BME280;40093;43.224;27.910;2022-12-29T12:22:03;101474.09;;;13.60;82.91
11523;BME280;40093;43.224;27.910;2022-12-29T12:24:42;101469.63;;;13.52;84.81
11523;BME280;40093;43.224;27.910;2022-12-29T12:27:17;101466.44;;;13.50;86.24
11523;BME280;40093;43.224;27.910;2022-12-29T12:29:51;101444.59;;;13.45;86.65
11523;BME280;40093;43.224;27.910;2022-12-29T12:32:24;101451.84;;;13.53;86.38
11523;BME280;40093;43.224;27.910;2022-12-29T12:34:53;101458.22;;;13.57;85.14
11523;BME280;40093;43.224;27.910;2022-12-29T12:37:34;101470.84;;;13.54;83.87
11523;BME280;40093;43.224;27.910;2022-12-29T12:40:20;101464.03;;;13.48;83.56
11523;BME280;40093;43.224;27.910;2022-12-29T12:43:01;101460.16;;;13.27;85.32
11523;BME280;40093;43.224;27.910;2022-12-29T12:45:45;101458.78;;;13.17;86.40
11523;BME280;40093;43.224;27.910;2022-12-29T12:48:32;101460.88;;;13.24;87.99
11523;BME280;40093;43.224;27.910;2022-12-29T12:51:11;101452.09;;;13.18;89.06
11523;BME280;40093;43.224;27.910;2022-12-29T12:53:49;101461.13;;;13.15;90.20
11523;BME280;40093;43.224;27.910;2022-12-29T12:56:31;101463.75;;;13.08;92.07
11523;BME280;40093;43.224;27.910;2022-12-29T12:59:09;101467.22;;;13.02;92.94
11523;BME280;40093;43.224;27.910;2022-12-29T13:01:46;101461.94;;;12.93;93.05
11523;BME280;40093;43.224;27.910;2022-12-29T13:07:24;101475.59;;;12.86;95.23
11523;BME280;40093;43.224;27.910;2022-12-29T13:13:12;101459.00;;;12.64;95.11